sensor_id;sensor_type;location;lat;lon;timestamp;P1;P2;P0
56069;PMS5003;41944;52.078;-0.058;2022-12-11T00:01:15;137;112;
56069;PMS5003;41944;52.078;-0.058;2022-12-11T00:03:44;133;110;
56069;PMS5003;41944;52.078;-0.058;2022-12-11T00:06:13;176;134;
56069;PMS5003;41944;52.078;-0.058;2022-12-11T00:08:43;296;194;
56069;PMS5003;41944;52.078;-0.058;2022-12-11T00:11:10;217;148;
56069;PMS5003;41944;52.078;-0.058;2022-12-11T00:13:38;165;115;
56069;PMS5003;41944;52.078;-0.058;2022-12-11T00:16:06;144;111;
56069;PMS5003;41944;52.078;-0.058;2022-12-11T00:18:33;91;76;
56069;PMS5003;41944;52.078;-0.058;2022-12-11T00:21:02;84;69;
56069;PMS5003;41944;52.078;-0.058;2022-12-11T00:23:29;86;73;
56069;PMS5003;41944;52.078;-0.058;2022-12-11T00:25:57;93;70;
56069;PMS5003;41944;52.078;-0.058;2022-12-11T00:28:24;77;73;
56069;PMS5003;41944;52.078;-0.058;2022-12-11T00:30:51;126;98;
56069;PMS5003;41944;52.078;-0.058;2022-12-11T00:33:18;112;87;
56069;PMS5003;41944;52.078;-0.058;2022-12-11T00:35:45;103;86;
56069;PMS5003;41944;52.078;-0.058;2022-12-11T00:38:13;102;76;
56069;PMS5003;41944;52.078;-0.058;2022-12-11T00:40:41;102;85;
56069;PMS5003;41944;52.078;-0.058;2022-12-11T00:43:10;109;93;
56069;PMS5003;41944;52.078;-0.058;2022-12-11T00:45:37;123;97;
56069;PMS5003;41944;52.078;-0.058;2022-12-11T00:48:06;114;101;
56069;PMS5003;41944;52.078;-0.058;2022-12-11T00:50:33;128;106;
56069;PMS5003;41944;52.078;-0.058;2022-12-11T00:53:00;113;95;
56069;PMS5003;41944;52.078;-0.058;2022-12-11T00:55:27;101;86;
56069;PMS5003;41944;52.078;-0.058;2022-12-11T00:57:55;112;91;
56069;PMS5003;41944;52.078;-0.058;2022-12-11T01:00:22;116;94;
56069;PMS5003;41944;52.078;-0.058;2022-12-11T01:02:50;109;93;
56069;PMS5003;41944;52.078;-0.058;2022-12-11T01:05:16;104;88;
56069;PMS5003;41944;52.078;-0.058;2022-12-11T01:07:44;122;91;
56069;PMS5003;41944;52.078;-0.058;2022-12-11T01:10:12;104;85;
56069;PMS5003;41944;52.078;-0.058;2022-12-11T01:12:39;99;89;
56069;PMS5003;41944;52.078;-0.058;2022-12-11T01:15:06;98;87;
56069;PMS5003;41944;52.078;-0.058;2022-12-11T01:17:34;81;63;
56069;PMS5003;41944;52.078;-0.058;2022-12-11T01:20:01;95;79;
56069;PMS5003;41944;52.078;-0.058;2022-12-11T01:22:29;95;74;
56069;PMS5003;41944;52.078;-0.058;2022-12-11T01:24:56;80;70;
56069;PMS5003;41944;52.078;-0.058;2022-12-11T01:27:23;72;59;
56069;PMS5003;41944;52.078;-0.058;2022-12-11T01:29:50;61;53;
56069;PMS5003;41944;52.078;-0.058;2022-12-11T01:32:17;70;53;
56069;PMS5003;41944;52.078;-0.058;2022-12-11T01:34:44;66;48;
56069;PMS5003;41944;52.078;-0.058;2022-12-11T01:37:11;66;56;
56069;PMS5003;41944;52.078;-0.058;2022-12-11T01:39:38;61;48;
56069;PMS5003;41944;52.078;-0.058;2022-12-11T01:42:09;72;58;
56069;PMS5003;41944;52.078;-0.058;2022-12-11T01:45:22;72;53;
56069;PMS5003;41944;52.078;-0.058;2022-12-11T01:47:53;63;51;
56069;PMS5003;41944;52.078;-0.058;2022-12-11T01:50:25;71;52;
56069;PMS5003;41944;52.078;-0.058;2022-12-11T01:52:53;62;53;
56069;PMS5003;41944;52.078;-0.058;2022-12-11T01:55:21;63;55;
56069;PMS5003;41944;52.078;-0.058;2022-12-11T01:57:48;68;53;
56069;PMS5003;41944;52.078;-0.058;2022-12-11T02:00:18;64;53;
56069;PMS5003;41944;52.078;-0.058;2022-12-11T02:02:47;62;57;
56069;PMS5003;41944;52.078;-0.058;2022-12-11T02:05:14;60;54;
56069;PMS5003;41944;52.078;-0.058;2022-12-11T02:07:42;64;50;
56069;PMS5003;41944;52.078;-0.058;2022-12-11T02:10:13;60;53;
56069;PMS5003;41944;52.078;-0.058;2022-12-11T02:12:41;70;58;
56069;PMS5003;41944;52.078;-0.058;2022-12-11T02:15:20;65;54;
56069;PMS5003;41944;52.078;-0.058;2022-12-11T02:17:58;62;52;
56069;PMS5003;41944;52.078;-0.058;2022-12-11T02:20:34;63;53;
56069;PMS5003;41944;52.078;-0.058;2022-12-11T02:23:11;68;55;
56069;PMS5003;41944;52.078;-0.058;2022-12-11T02:25:54;61;53;
56069;PMS5003;41944;52.078;-0.058;2022-12-11T02:28:32;70;60;
56069;PMS5003;41944;52.078;-0.058;2022-12-11T02:31:04;70;58;
56069;PMS5003;41944;52.078;-0.058;2022-12-11T02:33:38;71;55;
56069;PMS5003;41944;52.078;-0.058;2022-12-11T02:36:09;68;54;
56069;PMS5003;41944;52.078;-0.058;2022-12-11T02:38:40;68;57;
56069;PMS5003;41944;52.078;-0.058;2022-12-11T02:41:11;70;63;
56069;PMS5003;41944;52.078;-0.058;2022-12-11T02:43:38;70;62;
56069;PMS5003;41944;52.078;-0.058;2022-12-11T02:46:07;68;56;
56069;PMS5003;41944;52.078;-0.058;2022-12-11T02:48:35;83;71;
56069;PMS5003;41944;52.078;-0.058;2022-12-11T02:51:05;83;65;
56069;PMS5003;41944;52.078;-0.058;2022-12-11T02:53:36;100;79;
56069;PMS5003;41944;52.078;-0.058;2022-12-11T02:56:07;93;73;
56069;PMS5003;41944;52.078;-0.058;2022-12-11T02:58:37;85;76;
56069;PMS5003;41944;52.078;-0.058;2022-12-11T03:01:10;78;64;
56069;PMS5003;41944;52.078;-0.058;2022-12-11T03:03:37;86;65;
56069;PMS5003;41944;52.078;-0.058;2022-12-11T03:06:04;96;67;
56069;PMS5003;41944;52.078;-0.058;2022-12-11T03:08:32;86;69;
56069;PMS5003;41944;52.078;-0.058;2022-12-11T03:10:59;76;64;
56069;PMS5003;41944;52.078;-0.058;2022-12-11T03:13:26;87;70;
56069;PMS5003;41944;52.078;-0.058;2022-12-11T03:15:57;91;70;
56069;PMS5003;41944;52.078;-0.058;2022-12-11T03:18:33;87;68;
56069;PMS5003;41944;52.078;-0.058;2022-12-11T03:21:05;81;69;
56069;PMS5003;41944;52.078;-0.058;2022-12-11T03:23:40;81;63;
56069;PMS5003;41944;52.078;-0.058;2022-12-11T03:26:12;77;67;
56069;PMS5003;41944;52.078;-0.058;2022-12-11T03:28:43;79;65;
56069;PMS5003;41944;52.078;-0.058;2022-12-11T03:31:15;83;64;
56069;PMS5003;41944;52.078;-0.058;2022-12-11T03:33:48;75;63;
56069;PMS5003;41944;52.078;-0.058;2022-12-11T03:36:20;71;56;
56069;PMS5003;41944;52.078;-0.058;2022-12-11T03:38:51;62;51;
56069;PMS5003;41944;52.078;-0.058;2022-12-11T03:41:24;62;52;
56069;PMS5003;41944;52.078;-0.058;2022-12-11T03:43:53;67;60;
56069;PMS5003;41944;52.078;-0.058;2022-12-11T03:46:24;61;52;
56069;PMS5003;41944;52.078;-0.058;2022-12-11T03:48:57;61;56;
56069;PMS5003;41944;52.078;-0.058;2022-12-11T03:51:29;71;61;
56069;PMS5003;41944;52.078;-0.058;2022-12-11T03:53:59;77;63;
56069;PMS5003;41944;52.078;-0.058;2022-12-11T03:56:27;53;52;
56069;PMS5003;41944;52.078;-0.058;2022-12-11T03:58:58;64;55;
56069;PMS5003;41944;52.078;-0.058;2022-12-11T04:01:25;68;56;
56069;PMS5003;41944;52.078;-0.058;2022-12-11T04:03:52;76;63;
56069;PMS5003;41944;52.078;-0.058;2022-12-11T04:06:20;88;68;
56069;PMS5003;41944;52.078;-0.058;2022-12-11T04:08:47;80;64;
56069;PMS5003;41944;52.078;-0.058;2022-12-11T04:11:14;75;57;
56069;PMS5003;41944;52.078;-0.058;2022-12-11T04:13:41;84;66;
56069;PMS5003;41944;52.078;-0.058;2022-12-11T04:16:08;85;70;
56069;PMS5003;41944;52.078;-0.058;2022-12-11T04:18:35;95;67;
56069;PMS5003;41944;52.078;-0.058;2022-12-11T04:21:02;96;72;
56069;PMS5003;41944;52.078;-0.058;2022-12-11T04:23:30;104;76;
56069;PMS5003;41944;52.078;-0.058;2022-12-11T04:26:02;97;74;
56069;PMS5003;41944;52.078;-0.058;2022-12-11T04:28:30;97;77;
56069;PMS5003;41944;52.078;-0.058;2022-12-11T04:30:57;91;76;
56069;PMS5003;41944;52.078;-0.058;2022-12-11T04:33:24;85;69;
56069;PMS5003;41944;52.078;-0.058;2022-12-11T04:35:51;93;69;
56069;PMS5003;41944;52.078;-0.058;2022-12-11T04:38:18;99;74;
56069;PMS5003;41944;52.078;-0.058;2022-12-11T04:40:45;95;72;
56069;PMS5003;41944;52.078;-0.058;2022-12-11T04:43:12;90;70;
56069;PMS5003;41944;52.078;-0.058;2022-12-11T04:45:39;93;70;
56069;PMS5003;41944;52.078;-0.058;2022-12-11T04:48:07;91;74;
56069;PMS5003;41944;52.078;-0.058;2022-12-11T04:50:34;81;63;
56069;PMS5003;41944;52.078;-0.058;2022-12-11T04:53:01;103;75;
56069;PMS5003;41944;52.078;-0.058;2022-12-11T04:55:29;96;77;
56069;PMS5003;41944;52.078;-0.058;2022-12-11T04:57:56;90;73;
56069;PMS5003;41944;52.078;-0.058;2022-12-11T05:00:23;101;71;
56069;PMS5003;41944;52.078;-0.058;2022-12-11T05:02:50;89;71;
56069;PMS5003;41944;52.078;-0.058;2022-12-11T05:05:17;96;76;
56069;PMS5003;41944;52.078;-0.058;2022-12-11T05:07:44;84;75;
56069;PMS5003;41944;52.078;-0.058;2022-12-11T05:10:11;79;66;
56069;PMS5003;41944;52.078;-0.058;2022-12-11T05:12:38;76;69;
56069;PMS5003;41944;52.078;-0.058;2022-12-11T05:15:05;77;61;
56069;PMS5003;41944;52.078;-0.058;2022-12-11T05:17:33;83;61;
56069;PMS5003;41944;52.078;-0.058;2022-12-11T05:20:00;68;53;
56069;PMS5003;41944;52.078;-0.058;2022-12-11T05:22:28;79;62;
56069;PMS5003;41944;52.078;-0.058;2022-12-11T05:24:56;71;63;
56069;PMS5003;41944;52.078;-0.058;2022-12-11T05:27:23;78;63;
56069;PMS5003;41944;52.078;-0.058;2022-12-11T05:29:51;83;60;
56069;PMS5003;41944;52.078;-0.058;2022-12-11T05:32:18;70;62;
56069;PMS5003;41944;52.078;-0.058;2022-12-11T05:34:45;67;58;
56069;PMS5003;41944;52.078;-0.058;2022-12-11T05:37:12;72;55;
56069;PMS5003;41944;52.078;-0.058;2022-12-11T05:39:40;67;54;
56069;PMS5003;41944;52.078;-0.058;2022-12-11T05:42:07;72;60;
56069;PMS5003;41944;52.078;-0.058;2022-12-11T05:44:35;74;62;
56069;PMS5003;41944;52.078;-0.058;2022-12-11T05:47:02;80;58;
56069;PMS5003;41944;52.078;-0.058;2022-12-11T05:49:29;76;56;
56069;PMS5003;41944;52.078;-0.058;2022-12-11T05:51:56;75;60;
56069;PMS5003;41944;52.078;-0.058;2022-12-11T05:54:23;72;61;
56069;PMS5003;41944;52.078;-0.058;2022-12-11T05:56:50;68;59;
56069;PMS5003;41944;52.078;-0.058;2022-12-11T05:59:18;77;56;
56069;PMS5003;41944;52.078;-0.058;2022-12-11T06:01:45;66;54;
56069;PMS5003;41944;52.078;-0.058;2022-12-11T06:04:12;65;56;
56069;PMS5003;41944;52.078;-0.058;2022-12-11T06:06:39;82;68;
56069;PMS5003;41944;52.078;-0.058;2022-12-11T06:09:07;70;60;
56069;PMS5003;41944;52.078;-0.058;2022-12-11T06:11:38;72;58;
56069;PMS5003;41944;52.078;-0.058;2022-12-11T06:14:05;75;61;
56069;PMS5003;41944;52.078;-0.058;2022-12-11T06:16:32;74;59;
56069;PMS5003;41944;52.078;-0.058;2022-12-11T06:18:59;60;54;
56069;PMS5003;41944;52.078;-0.058;2022-12-11T06:21:27;80;57;
56069;PMS5003;41944;52.078;-0.058;2022-12-11T06:23:57;71;53;
56069;PMS5003;41944;52.078;-0.058;2022-12-11T06:26:26;65;58;
56069;PMS5003;41944;52.078;-0.058;2022-12-11T06:28:54;79;65;
56069;PMS5003;41944;52.078;-0.058;2022-12-11T06:31:21;68;60;
56069;PMS5003;41944;52.078;-0.058;2022-12-11T06:33:48;66;54;
56069;PMS5003;41944;52.078;-0.058;2022-12-11T06:36:18;85;67;
56069;PMS5003;41944;52.078;-0.058;2022-12-11T06:38:47;72;57;
56069;PMS5003;41944;52.078;-0.058;2022-12-11T06:41:14;79;64;
56069;PMS5003;41944;52.078;-0.058;2022-12-11T06:43:42;74;61;
56069;PMS5003;41944;52.078;-0.058;2022-12-11T06:46:10;71;58;
56069;PMS5003;41944;52.078;-0.058;2022-12-11T06:48:40;85;68;
56069;PMS5003;41944;52.078;-0.058;2022-12-11T06:51:07;74;62;
56069;PMS5003;41944;52.078;-0.058;2022-12-11T06:53:36;69;57;
56069;PMS5003;41944;52.078;-0.058;2022-12-11T06:56:05;67;60;
56069;PMS5003;41944;52.078;-0.058;2022-12-11T06:58:35;74;51;
56069;PMS5003;41944;52.078;-0.058;2022-12-11T07:01:03;72;59;
56069;PMS5003;41944;52.078;-0.058;2022-12-11T07:03:39;72;58;
56069;PMS5003;41944;52.078;-0.058;2022-12-11T07:06:06;71;60;
56069;PMS5003;41944;52.078;-0.058;2022-12-11T07:08:33;77;63;
56069;PMS5003;41944;52.078;-0.058;2022-12-11T07:11:01;76;66;
56069;PMS5003;41944;52.078;-0.058;2022-12-11T07:13:29;99;78;
56069;PMS5003;41944;52.078;-0.058;2022-12-11T07:15:57;97;79;
56069;PMS5003;41944;52.078;-0.058;2022-12-11T07:18:24;80;64;
56069;PMS5003;41944;52.078;-0.058;2022-12-11T07:20:51;81;63;
56069;PMS5003;41944;52.078;-0.058;2022-12-11T07:23:18;89;64;
56069;PMS5003;41944;52.078;-0.058;2022-12-11T07:25:45;85;70;
56069;PMS5003;41944;52.078;-0.058;2022-12-11T07:28:12;87;63;
56069;PMS5003;41944;52.078;-0.058;2022-12-11T07:30:39;87;68;
56069;PMS5003;41944;52.078;-0.058;2022-12-11T07:33:05;93;72;
56069;PMS5003;41944;52.078;-0.058;2022-12-11T07:35:33;91;69;
56069;PMS5003;41944;52.078;-0.058;2022-12-11T07:38:00;84;70;
56069;PMS5003;41944;52.078;-0.058;2022-12-11T07:40:27;89;70;
56069;PMS5003;41944;52.078;-0.058;2022-12-11T07:42:54;85;70;
56069;PMS5003;41944;52.078;-0.058;2022-12-11T07:45:21;85;67;
56069;PMS5003;41944;52.078;-0.058;2022-12-11T07:47:49;86;69;
56069;PMS5003;41944;52.078;-0.058;2022-12-11T07:50:16;91;71;
56069;PMS5003;41944;52.078;-0.058;2022-12-11T07:52:43;85;69;
56069;PMS5003;41944;52.078;-0.058;2022-12-11T07:55:11;100;89;
56069;PMS5003;41944;52.078;-0.058;2022-12-11T07:57:37;85;69;
56069;PMS5003;41944;52.078;-0.058;2022-12-11T08:00:05;95;70;
56069;PMS5003;41944;52.078;-0.058;2022-12-11T08:02:33;91;75;
56069;PMS5003;41944;52.078;-0.058;2022-12-11T08:05:00;77;62;
56069;PMS5003;41944;52.078;-0.058;2022-12-11T08:07:28;92;71;
56069;PMS5003;41944;52.078;-0.058;2022-12-11T08:09:55;89;63;
56069;PMS5003;41944;52.078;-0.058;2022-12-11T08:12:22;76;62;
56069;PMS5003;41944;52.078;-0.058;2022-12-11T08:14:49;84;68;
56069;PMS5003;41944;52.078;-0.058;2022-12-11T08:17:16;89;75;
56069;PMS5003;41944;52.078;-0.058;2022-12-11T08:19:43;102;75;
56069;PMS5003;41944;52.078;-0.058;2022-12-11T08:22:10;79;65;
56069;PMS5003;41944;52.078;-0.058;2022-12-11T08:24:37;96;78;
56069;PMS5003;41944;52.078;-0.058;2022-12-11T08:27:05;93;77;
56069;PMS5003;41944;52.078;-0.058;2022-12-11T08:29:32;102;84;
56069;PMS5003;41944;52.078;-0.058;2022-12-11T08:31:58;105;79;
56069;PMS5003;41944;52.078;-0.058;2022-12-11T08:34:26;86;71;
56069;PMS5003;41944;52.078;-0.058;2022-12-11T08:36:53;90;74;
56069;PMS5003;41944;52.078;-0.058;2022-12-11T08:39:21;82;75;
56069;PMS5003;41944;52.078;-0.058;2022-12-11T08:41:48;91;73;
56069;PMS5003;41944;52.078;-0.058;2022-12-11T08:44:15;85;73;
56069;PMS5003;41944;52.078;-0.058;2022-12-11T08:46:42;103;79;
56069;PMS5003;41944;52.078;-0.058;2022-12-11T08:49:09;97;78;
56069;PMS5003;41944;52.078;-0.058;2022-12-11T08:51:36;106;86;
56069;PMS5003;41944;52.078;-0.058;2022-12-11T08:54:04;99;74;
56069;PMS5003;41944;52.078;-0.058;2022-12-11T08:56:31;87;71;
56069;PMS5003;41944;52.078;-0.058;2022-12-11T08:58:58;96;74;
56069;PMS5003;41944;52.078;-0.058;2022-12-11T09:01:26;86;70;
56069;PMS5003;41944;52.078;-0.058;2022-12-11T09:03:54;82;64;
56069;PMS5003;41944;52.078;-0.058;2022-12-11T09:06:23;92;72;
56069;PMS5003;41944;52.078;-0.058;2022-12-11T09:08:52;82;70;
56069;PMS5003;41944;52.078;-0.058;2022-12-11T09:11:20;76;60;
56069;PMS5003;41944;52.078;-0.058;2022-12-11T09:13:49;83;69;
56069;PMS5003;41944;52.078;-0.058;2022-12-11T09:16:17;65;52;
56069;PMS5003;41944;52.078;-0.058;2022-12-11T09:18:46;73;57;
56069;PMS5003;41944;52.078;-0.058;2022-12-11T09:21:15;91;69;
56069;PMS5003;41944;52.078;-0.058;2022-12-11T09:23:44;85;68;
56069;PMS5003;41944;52.078;-0.058;2022-12-11T09:26:13;79;64;
56069;PMS5003;41944;52.078;-0.058;2022-12-11T09:28:41;85;68;
56069;PMS5003;41944;52.078;-0.058;2022-12-11T09:31:09;81;67;
56069;PMS5003;41944;52.078;-0.058;2022-12-11T09:33:38;97;72;
56069;PMS5003;41944;52.078;-0.058;2022-12-11T09:36:06;83;69;
56069;PMS5003;41944;52.078;-0.058;2022-12-11T09:38:34;99;78;
56069;PMS5003;41944;52.078;-0.058;2022-12-11T09:41:02;92;65;
56069;PMS5003;41944;52.078;-0.058;2022-12-11T09:43:51;74;60;
56069;PMS5003;41944;52.078;-0.058;2022-12-11T09:46:28;83;69;
56069;PMS5003;41944;52.078;-0.058;2022-12-11T09:48:57;74;59;
56069;PMS5003;41944;52.078;-0.058;2022-12-11T09:51:25;76;58;
56069;PMS5003;41944;52.078;-0.058;2022-12-11T09:53:59;63;52;
56069;PMS5003;41944;52.078;-0.058;2022-12-11T09:56:31;64;56;
56069;PMS5003;41944;52.078;-0.058;2022-12-11T09:59:03;75;58;
56069;PMS5003;41944;52.078;-0.058;2022-12-11T10:01:37;74;59;
56069;PMS5003;41944;52.078;-0.058;2022-12-11T10:04:21;55;48;
56069;PMS5003;41944;52.078;-0.058;2022-12-11T10:07:05;87;60;
56069;PMS5003;41944;52.078;-0.058;2022-12-11T10:09:42;68;53;
56069;PMS5003;41944;52.078;-0.058;2022-12-11T10:12:20;66;55;
56069;PMS5003;41944;52.078;-0.058;2022-12-11T10:15:03;69;54;
56069;PMS5003;41944;52.078;-0.058;2022-12-11T10:17:40;73;57;
56069;PMS5003;41944;52.078;-0.058;2022-12-11T10:20:14;75;59;
56069;PMS5003;41944;52.078;-0.058;2022-12-11T10:22:48;89;61;
56069;PMS5003;41944;52.078;-0.058;2022-12-11T10:25:19;76;56;
56069;PMS5003;41944;52.078;-0.058;2022-12-11T10:27:49;69;49;
56069;PMS5003;41944;52.078;-0.058;2022-12-11T10:30:17;58;51;
56069;PMS5003;41944;52.078;-0.058;2022-12-11T10:32:48;55;47;
56069;PMS5003;41944;52.078;-0.058;2022-12-11T10:35:19;57;48;
56069;PMS5003;41944;52.078;-0.058;2022-12-11T10:37:56;51;47;
56069;PMS5003;41944;52.078;-0.058;2022-12-11T10:40:32;44;38;
56069;PMS5003;41944;52.078;-0.058;2022-12-11T10:43:01;53;44;
56069;PMS5003;41944;52.078;-0.058;2022-12-11T10:45:28;64;43;
56069;PMS5003;41944;52.078;-0.058;2022-12-11T10:48:03;55;45;
56069;PMS5003;41944;52.078;-0.058;2022-12-11T10:50:32;65;52;
56069;PMS5003;41944;52.078;-0.058;2022-12-11T10:52:59;56;49;
56069;PMS5003;41944;52.078;-0.058;2022-12-11T10:55:27;67;55;
56069;PMS5003;41944;52.078;-0.058;2022-12-11T10:58:02;59;47;
56069;PMS5003;41944;52.078;-0.058;2022-12-11T11:00:32;59;50;
56069;PMS5003;41944;52.078;-0.058;2022-12-11T11:03:02;67;55;
56069;PMS5003;41944;52.078;-0.058;2022-12-11T11:05:32;59;49;
56069;PMS5003;41944;52.078;-0.058;2022-12-11T11:08:02;58;51;
56069;PMS5003;41944;52.078;-0.058;2022-12-11T11:10:48;67;53;
56069;PMS5003;41944;52.078;-0.058;2022-12-11T11:13:16;63;51;
56069;PMS5003;41944;52.078;-0.058;2022-12-11T11:15:46;62;50;
56069;PMS5003;41944;52.078;-0.058;2022-12-11T11:18:15;69;51;
56069;PMS5003;41944;52.078;-0.058;2022-12-11T11:20:49;63;53;
56069;PMS5003;41944;52.078;-0.058;2022-12-11T11:23:18;54;48;
56069;PMS5003;41944;52.078;-0.058;2022-12-11T11:25:50;60;51;
56069;PMS5003;41944;52.078;-0.058;2022-12-11T11:28:19;56;48;
56069;PMS5003;41944;52.078;-0.058;2022-12-11T11:31:07;59;51;
56069;PMS5003;41944;52.078;-0.058;2022-12-11T11:33:36;77;57;
56069;PMS5003;41944;52.078;-0.058;2022-12-11T11:36:22;69;55;
56069;PMS5003;41944;52.078;-0.058;2022-12-11T11:38:56;74;56;
56069;PMS5003;41944;52.078;-0.058;2022-12-11T11:41:37;62;53;
56069;PMS5003;41944;52.078;-0.058;2022-12-11T11:44:13;61;52;
56069;PMS5003;41944;52.078;-0.058;2022-12-11T11:46:45;60;51;
56069;PMS5003;41944;52.078;-0.058;2022-12-11T11:49:20;61;55;
56069;PMS5003;41944;52.078;-0.058;2022-12-11T11:51:54;66;47;
56069;PMS5003;41944;52.078;-0.058;2022-12-11T11:54:28;67;54;
56069;PMS5003;41944;52.078;-0.058;2022-12-11T11:57:00;50;45;
56069;PMS5003;41944;52.078;-0.058;2022-12-11T11:59:38;60;46;
56069;PMS5003;41944;52.078;-0.058;2022-12-11T12:02:12;57;46;
56069;PMS5003;41944;52.078;-0.058;2022-12-11T12:04:41;47;46;
56069;PMS5003;41944;52.078;-0.058;2022-12-11T12:07:15;60;51;
56069;PMS5003;41944;52.078;-0.058;2022-12-11T12:09:56;56;44;
56069;PMS5003;41944;52.078;-0.058;2022-12-11T12:12:31;54;43;
56069;PMS5003;41944;52.078;-0.058;2022-12-11T12:15:12;45;41;
56069;PMS5003;41944;52.078;-0.058;2022-12-11T12:17:48;49;40;
56069;PMS5003;41944;52.078;-0.058;2022-12-11T12:20:19;49;37;
56069;PMS5003;41944;52.078;-0.058;2022-12-11T12:22:56;42;39;
56069;PMS5003;41944;52.078;-0.058;2022-12-11T12:25:36;50;41;
56069;PMS5003;41944;52.078;-0.058;2022-12-11T12:28:12;43;36;
56069;PMS5003;41944;52.078;-0.058;2022-12-11T12:30:50;58;44;
56069;PMS5003;41944;52.078;-0.058;2022-12-11T12:33:30;55;45;
56069;PMS5003;41944;52.078;-0.058;2022-12-11T12:36:12;57;44;
56069;PMS5003;41944;52.078;-0.058;2022-12-11T12:38:49;52;43;
56069;PMS5003;41944;52.078;-0.058;2022-12-11T12:41:20;57;45;
56069;PMS5003;41944;52.078;-0.058;2022-12-11T12:43:58;50;44;
56069;PMS5003;41944;52.078;-0.058;2022-12-11T12:46:39;57;48;
56069;PMS5003;41944;52.078;-0.058;2022-12-11T12:49:15;49;42;
56069;PMS5003;41944;52.078;-0.058;2022-12-11T12:51:53;56;46;
56069;PMS5003;41944;52.078;-0.058;2022-12-11T12:54:21;54;47;
56069;PMS5003;41944;52.078;-0.058;2022-12-11T12:56:52;70;57;
56069;PMS5003;41944;52.078;-0.058;2022-12-11T12:59:20;57;49;
56069;PMS5003;41944;52.078;-0.058;2022-12-11T13:01:49;46;40;
56069;PMS5003;41944;52.078;-0.058;2022-12-11T13:04:33;48;40;
56069;PMS5003;41944;52.078;-0.058;2022-12-11T13:07:10;41;39;
56069;PMS5003;41944;52.078;-0.058;2022-12-11T13:09:41;53;42;
56069;PMS5003;41944;52.078;-0.058;2022-12-11T13:12:12;52;45;
56069;PMS5003;41944;52.078;-0.058;2022-12-11T13:14:41;58;45;
56069;PMS5003;41944;52.078;-0.058;2022-12-11T13:17:25;77;51;
56069;PMS5003;41944;52.078;-0.058;2022-12-11T13:20:13;54;42;
56069;PMS5003;41944;52.078;-0.058;2022-12-11T13:22:52;42;37;
56069;PMS5003;41944;52.078;-0.058;2022-12-11T13:25:24;51;41;
56069;PMS5003;41944;52.078;-0.058;2022-12-11T13:28:03;44;35;
56069;PMS5003;41944;52.078;-0.058;2022-12-11T13:30:31;48;34;
56069;PMS5003;41944;52.078;-0.058;2022-12-11T13:33:01;54;41;
56069;PMS5003;41944;52.078;-0.058;2022-12-11T13:35:30;73;61;
56069;PMS5003;41944;52.078;-0.058;2022-12-11T13:38:01;47;37;
56069;PMS5003;41944;52.078;-0.058;2022-12-11T13:40:35;53;45;
56069;PMS5003;41944;52.078;-0.058;2022-12-11T13:43:06;45;39;
56069;PMS5003;41944;52.078;-0.058;2022-12-11T13:45:43;58;48;
56069;PMS5003;41944;52.078;-0.058;2022-12-11T13:48:16;59;51;
56069;PMS5003;41944;52.078;-0.058;2022-12-11T13:50:49;53;42;
56069;PMS5003;41944;52.078;-0.058;2022-12-11T13:53:17;71;60;
56069;PMS5003;41944;52.078;-0.058;2022-12-11T13:55:45;57;48;
56069;PMS5003;41944;52.078;-0.058;2022-12-11T13:58:21;79;54;
56069;PMS5003;41944;52.078;-0.058;2022-12-11T14:00:52;38;36;
56069;PMS5003;41944;52.078;-0.058;2022-12-11T14:03:24;58;49;
56069;PMS5003;41944;52.078;-0.058;2022-12-11T14:05:52;58;51;
56069;PMS5003;41944;52.078;-0.058;2022-12-11T14:08:20;49;45;
56069;PMS5003;41944;52.078;-0.058;2022-12-11T14:10:58;72;54;
56069;PMS5003;41944;52.078;-0.058;2022-12-11T14:13:25;56;48;
56069;PMS5003;41944;52.078;-0.058;2022-12-11T14:15:56;43;38;
56069;PMS5003;41944;52.078;-0.058;2022-12-11T14:18:23;52;46;
56069;PMS5003;41944;52.078;-0.058;2022-12-11T14:20:54;47;41;
56069;PMS5003;41944;52.078;-0.058;2022-12-11T14:23:22;49;45;
56069;PMS5003;41944;52.078;-0.058;2022-12-11T14:25:51;95;77;
56069;PMS5003;41944;52.078;-0.058;2022-12-11T14:28:20;50;44;
56069;PMS5003;41944;52.078;-0.058;2022-12-11T14:30:49;58;47;
56069;PMS5003;41944;52.078;-0.058;2022-12-11T14:33:17;56;47;
56069;PMS5003;41944;52.078;-0.058;2022-12-11T14:35:47;56;44;
56069;PMS5003;41944;52.078;-0.058;2022-12-11T14:38:19;58;50;
56069;PMS5003;41944;52.078;-0.058;2022-12-11T14:40:51;52;38;
56069;PMS5003;41944;52.078;-0.058;2022-12-11T14:43:22;51;42;
56069;PMS5003;41944;52.078;-0.058;2022-12-11T14:45:54;53;45;
56069;PMS5003;41944;52.078;-0.058;2022-12-11T14:48:26;53;49;
56069;PMS5003;41944;52.078;-0.058;2022-12-11T14:50:59;54;42;
56069;PMS5003;41944;52.078;-0.058;2022-12-11T14:53:30;46;43;
56069;PMS5003;41944;52.078;-0.058;2022-12-11T14:56:01;39;35;
56069;PMS5003;41944;52.078;-0.058;2022-12-11T14:58:31;56;39;
56069;PMS5003;41944;52.078;-0.058;2022-12-11T15:01:07;57;48;
56069;PMS5003;41944;52.078;-0.058;2022-12-11T15:03:48;58;43;
56069;PMS5003;41944;52.078;-0.058;2022-12-11T15:06:23;59;48;
56069;PMS5003;41944;52.078;-0.058;2022-12-11T15:08:53;70;56;
56069;PMS5003;41944;52.078;-0.058;2022-12-11T15:11:20;64;53;
56069;PMS5003;41944;52.078;-0.058;2022-12-11T15:13:50;67;63;
56069;PMS5003;41944;52.078;-0.058;2022-12-11T15:16:20;49;43;
56069;PMS5003;41944;52.078;-0.058;2022-12-11T15:18:50;46;39;
56069;PMS5003;41944;52.078;-0.058;2022-12-11T15:21:26;50;38;
56069;PMS5003;41944;52.078;-0.058;2022-12-11T15:23:56;52;46;
56069;PMS5003;41944;52.078;-0.058;2022-12-11T15:26:31;60;48;
56069;PMS5003;41944;52.078;-0.058;2022-12-11T15:29:00;58;43;
56069;PMS5003;41944;52.078;-0.058;2022-12-11T15:31:30;63;48;
56069;PMS5003;41944;52.078;-0.058;2022-12-11T15:33:59;76;56;
56069;PMS5003;41944;52.078;-0.058;2022-12-11T15:36:30;57;51;
56069;PMS5003;41944;52.078;-0.058;2022-12-11T15:38:59;46;38;
56069;PMS5003;41944;52.078;-0.058;2022-12-11T15:41:27;54;45;
56069;PMS5003;41944;52.078;-0.058;2022-12-11T15:43:54;47;42;
56069;PMS5003;41944;52.078;-0.058;2022-12-11T15:46:23;60;51;
56069;PMS5003;41944;52.078;-0.058;2022-12-11T15:48:50;58;47;
56069;PMS5003;41944;52.078;-0.058;2022-12-11T15:51:17;54;43;
56069;PMS5003;41944;52.078;-0.058;2022-12-11T15:53:45;51;44;
56069;PMS5003;41944;52.078;-0.058;2022-12-11T15:56:12;50;43;
56069;PMS5003;41944;52.078;-0.058;2022-12-11T15:58:40;66;48;
56069;PMS5003;41944;52.078;-0.058;2022-12-11T16:01:09;60;48;
56069;PMS5003;41944;52.078;-0.058;2022-12-11T16:03:36;61;49;
56069;PMS5003;41944;52.078;-0.058;2022-12-11T16:06:04;55;48;
56069;PMS5003;41944;52.078;-0.058;2022-12-11T16:08:31;56;49;
56069;PMS5003;41944;52.078;-0.058;2022-12-11T16:10:58;65;48;
56069;PMS5003;41944;52.078;-0.058;2022-12-11T16:13:25;69;52;
56069;PMS5003;41944;52.078;-0.058;2022-12-11T16:15:53;76;64;
56069;PMS5003;41944;52.078;-0.058;2022-12-11T16:18:21;66;52;